sensor_id;sensor_type;location;lat;lon;timestamp;P1;durP1;ratioP1;P2;durP2;ratioP2
31734;SDS011;18313;48.518;9.124;2024-01-30T00:01:31;14.60;;;8.55;;
31734;SDS011;18313;48.518;9.124;2024-01-30T00:04:00;15.77;;;8.75;;
31734;SDS011;18313;48.518;9.124;2024-01-30T00:06:29;16.90;;;8.93;;
31734;SDS011;18313;48.518;9.124;2024-01-30T00:08:57;14.98;;;8.88;;
31734;SDS011;18313;48.518;9.124;2024-01-30T00:11:24;15.40;;;9.10;;
31734;SDS011;18313;48.518;9.124;2024-01-30T00:13:52;15.52;;;8.65;;
31734;SDS011;18313;48.518;9.124;2024-01-30T00:16:23;15.85;;;8.98;;
31734;SDS011;18313;48.518;9.124;2024-01-30T00:18:51;16.08;;;8.52;;
31734;SDS011;18313;48.518;9.124;2024-01-30T00:21:20;18.00;;;9.15;;
31734;SDS011;18313;48.518;9.124;2024-01-30T00:23:48;13.45;;;8.13;;
31734;SDS011;18313;48.518;9.124;2024-01-30T00:26:15;13.15;;;8.48;;
31734;SDS011;18313;48.518;9.124;2024-01-30T00:28:43;14.80;;;8.23;;
31734;SDS011;18313;48.518;9.124;2024-01-30T00:31:11;18.42;;;8.82;;
31734;SDS011;18313;48.518;9.124;2024-01-30T00:33:41;15.40;;;9.02;;
31734;SDS011;18313;48.518;9.124;2024-01-30T00:36:09;15.18;;;9.25;;
31734;SDS011;18313;48.518;9.124;2024-01-30T00:38:37;16.73;;;9.75;;
31734;SDS011;18313;48.518;9.124;2024-01-30T00:41:04;13.98;;;8.63;;
31734;SDS011;18313;48.518;9.124;2024-01-30T00:43:31;14.55;;;9.13;;
31734;SDS011;18313;48.518;9.124;2024-01-30T00:45:59;14.60;;;9.15;;
31734;SDS011;18313;48.518;9.124;2024-01-30T00:48:27;16.33;;;8.98;;
31734;SDS011;18313;48.518;9.124;2024-01-30T00:50:54;15.77;;;9.50;;
31734;SDS011;18313;48.518;9.124;2024-01-30T00:53:21;14.52;;;8.52;;
31734;SDS011;18313;48.518;9.124;2024-01-30T00:55:48;16.63;;;8.68;;
31734;SDS011;18313;48.518;9.124;2024-01-30T00:58:16;15.40;;;8.75;;
31734;SDS011;18313;48.518;9.124;2024-01-30T01:00:46;14.18;;;8.20;;
31734;SDS011;18313;48.518;9.124;2024-01-30T01:03:14;15.23;;;8.88;;
31734;SDS011;18313;48.518;9.124;2024-01-30T01:05:41;15.23;;;8.85;;
31734;SDS011;18313;48.518;9.124;2024-01-30T01:08:09;14.10;;;8.63;;
31734;SDS011;18313;48.518;9.124;2024-01-30T01:10:36;14.52;;;8.35;;
31734;SDS011;18313;48.518;9.124;2024-01-30T01:13:04;16.40;;;8.65;;
31734;SDS011;18313;48.518;9.124;2024-01-30T01:15:33;14.25;;;8.00;;
31734;SDS011;18313;48.518;9.124;2024-01-30T01:18:00;12.50;;;8.00;;
31734;SDS011;18313;48.518;9.124;2024-01-30T01:20:30;14.20;;;8.75;;
31734;SDS011;18313;48.518;9.124;2024-01-30T01:22:58;13.27;;;8.50;;
31734;SDS011;18313;48.518;9.124;2024-01-30T01:25:27;14.15;;;8.70;;
31734;SDS011;18313;48.518;9.124;2024-01-30T01:27:56;14.75;;;9.40;;
31734;SDS011;18313;48.518;9.124;2024-01-30T01:30:24;16.13;;;8.77;;
31734;SDS011;18313;48.518;9.124;2024-01-30T01:32:55;14.75;;;8.63;;
31734;SDS011;18313;48.518;9.124;2024-01-30T01:35:24;12.07;;;8.38;;
31734;SDS011;18313;48.518;9.124;2024-01-30T01:37:53;14.43;;;8.35;;
31734;SDS011;18313;48.518;9.124;2024-01-30T01:40:26;14.13;;;8.20;;
31734;SDS011;18313;48.518;9.124;2024-01-30T01:42:55;13.70;;;8.70;;
31734;SDS011;18313;48.518;9.124;2024-01-30T01:45:23;13.23;;;7.60;;
31734;SDS011;18313;48.518;9.124;2024-01-30T01:47:51;13.82;;;7.45;;
31734;SDS011;18313;48.518;9.124;2024-01-30T01:50:20;15.13;;;7.72;;
31734;SDS011;18313;48.518;9.124;2024-01-30T01:52:49;12.38;;;7.20;;
31734;SDS011;18313;48.518;9.124;2024-01-30T01:55:18;12.85;;;7.38;;
31734;SDS011;18313;48.518;9.124;2024-01-30T01:57:52;13.45;;;8.15;;
31734;SDS011;18313;48.518;9.124;2024-01-30T02:00:20;13.20;;;7.72;;
31734;SDS011;18313;48.518;9.124;2024-01-30T02:02:49;14.68;;;7.72;;
31734;SDS011;18313;48.518;9.124;2024-01-30T02:08:06;11.82;;;6.63;;
31734;SDS011;18313;48.518;9.124;2024-01-30T02:11:48;14.48;;;6.63;;
31734;SDS011;18313;48.518;9.124;2024-01-30T02:15:32;11.20;;;6.10;;
31734;SDS011;18313;48.518;9.124;2024-01-30T02:19:14;14.75;;;6.65;;
31734;SDS011;18313;48.518;9.124;2024-01-30T02:22:55;9.77;;;6.38;;
31734;SDS011;18313;48.518;9.124;2024-01-30T02:25:50;13.80;;;7.32;;
31734;SDS011;18313;48.518;9.124;2024-01-30T02:36:09;13.30;;;8.02;;
31734;SDS011;18313;48.518;9.124;2024-01-30T02:39:29;14.57;;;8.13;;
31734;SDS011;18313;48.518;9.124;2024-01-30T02:42:51;13.40;;;8.45;;
31734;SDS011;18313;48.518;9.124;2024-01-30T02:46:07;14.05;;;7.72;;
31734;SDS011;18313;48.518;9.124;2024-01-30T02:49:23;13.13;;;8.30;;
31734;SDS011;18313;48.518;9.124;2024-01-30T02:52:39;14.18;;;7.85;;
31734;SDS011;18313;48.518;9.124;2024-01-30T02:55:57;15.88;;;9.35;;
31734;SDS011;18313;48.518;9.124;2024-01-30T02:59:16;14.68;;;8.63;;
31734;SDS011;18313;48.518;9.124;2024-01-30T03:02:32;14.43;;;8.35;;
31734;SDS011;18313;48.518;9.124;2024-01-30T03:05:48;14.95;;;8.52;;
31734;SDS011;18313;48.518;9.124;2024-01-30T03:08:16;13.88;;;8.32;;
31734;SDS011;18313;48.518;9.124;2024-01-30T03:11:58;13.25;;;8.15;;
31734;SDS011;18313;48.518;9.124;2024-01-30T03:25:20;14.75;;;8.50;;
31734;SDS011;18313;48.518;9.124;2024-01-30T03:28:18;16.30;;;9.00;;
31734;SDS011;18313;48.518;9.124;2024-01-30T03:31:53;12.50;;;8.32;;
31734;SDS011;18313;48.518;9.124;2024-01-30T03:34:36;13.70;;;8.45;;
31734;SDS011;18313;48.518;9.124;2024-01-30T03:37:04;14.02;;;8.32;;
31734;SDS011;18313;48.518;9.124;2024-01-30T03:39:32;13.57;;;8.25;;
31734;SDS011;18313;48.518;9.124;2024-01-30T03:41:59;15.48;;;8.48;;
31734;SDS011;18313;48.518;9.124;2024-01-30T03:44:26;13.90;;;8.73;;
31734;SDS011;18313;48.518;9.124;2024-01-30T03:46:53;15.55;;;7.65;;
31734;SDS011;18313;48.518;9.124;2024-01-30T03:49:21;13.35;;;7.93;;
31734;SDS011;18313;48.518;9.124;2024-01-30T03:51:48;15.07;;;8.18;;
31734;SDS011;18313;48.518;9.124;2024-01-30T03:54:16;13.30;;;7.53;;
31734;SDS011;18313;48.518;9.124;2024-01-30T03:56:44;13.68;;;7.63;;
31734;SDS011;18313;48.518;9.124;2024-01-30T03:59:11;12.32;;;7.93;;
31734;SDS011;18313;48.518;9.124;2024-01-30T04:01:38;13.95;;;7.72;;
31734;SDS011;18313;48.518;9.124;2024-01-30T04:04:06;16.85;;;8.38;;
31734;SDS011;18313;48.518;9.124;2024-01-30T04:06:33;15.07;;;8.70;;
31734;SDS011;18313;48.518;9.124;2024-01-30T04:09:01;14.23;;;8.75;;
31734;SDS011;18313;48.518;9.124;2024-01-30T04:11:30;14.70;;;8.25;;
31734;SDS011;18313;48.518;9.124;2024-01-30T04:13:58;17.00;;;9.15;;
31734;SDS011;18313;48.518;9.124;2024-01-30T04:16:25;16.98;;;8.75;;
31734;SDS011;18313;48.518;9.124;2024-01-30T04:18:53;14.88;;;8.48;;
31734;SDS011;18313;48.518;9.124;2024-01-30T04:21:21;15.25;;;8.63;;
31734;SDS011;18313;48.518;9.124;2024-01-30T04:23:50;16.10;;;8.50;;
31734;SDS011;18313;48.518;9.124;2024-01-30T04:26:20;14.20;;;8.98;;
31734;SDS011;18313;48.518;9.124;2024-01-30T04:28:47;14.35;;;8.88;;
31734;SDS011;18313;48.518;9.124;2024-01-30T04:31:14;14.30;;;8.73;;
31734;SDS011;18313;48.518;9.124;2024-01-30T04:33:42;12.98;;;8.57;;
31734;SDS011;18313;48.518;9.124;2024-01-30T04:36:10;14.40;;;8.80;;
31734;SDS011;18313;48.518;9.124;2024-01-30T04:38:40;14.48;;;9.35;;
31734;SDS011;18313;48.518;9.124;2024-01-30T04:41:08;16.35;;;9.50;;
31734;SDS011;18313;48.518;9.124;2024-01-30T04:43:35;15.52;;;8.73;;
31734;SDS011;18313;48.518;9.124;2024-01-30T04:46:03;15.48;;;9.30;;
31734;SDS011;18313;48.518;9.124;2024-01-30T04:48:31;15.13;;;8.88;;
31734;SDS011;18313;48.518;9.124;2024-01-30T04:50:59;12.82;;;8.57;;
31734;SDS011;18313;48.518;9.124;2024-01-30T04:53:30;13.25;;;8.35;;
31734;SDS011;18313;48.518;9.124;2024-01-30T04:55:58;13.40;;;8.75;;
31734;SDS011;18313;48.518;9.124;2024-01-30T04:58:25;12.90;;;7.80;;
31734;SDS011;18313;48.518;9.124;2024-01-30T05:00:54;14.80;;;8.93;;
31734;SDS011;18313;48.518;9.124;2024-01-30T05:03:23;17.55;;;10.35;;
31734;SDS011;18313;48.518;9.124;2024-01-30T05:05:51;18.42;;;10.45;;
31734;SDS011;18313;48.518;9.124;2024-01-30T05:08:19;15.15;;;8.88;;
31734;SDS011;18313;48.518;9.124;2024-01-30T05:10:46;16.27;;;9.60;;
31734;SDS011;18313;48.518;9.124;2024-01-30T05:13:14;15.10;;;9.05;;
31734;SDS011;18313;48.518;9.124;2024-01-30T05:15:42;14.63;;;9.18;;
31734;SDS011;18313;48.518;9.124;2024-01-30T05:18:10;16.30;;;9.55;;
31734;SDS011;18313;48.518;9.124;2024-01-30T05:20:37;15.77;;;9.27;;
31734;SDS011;18313;48.518;9.124;2024-01-30T05:23:05;13.82;;;8.65;;
31734;SDS011;18313;48.518;9.124;2024-01-30T05:25:33;16.35;;;8.88;;
31734;SDS011;18313;48.518;9.124;2024-01-30T05:28:01;15.13;;;9.25;;
31734;SDS011;18313;48.518;9.124;2024-01-30T05:30:28;15.98;;;8.98;;
31734;SDS011;18313;48.518;9.124;2024-01-30T05:32:56;15.38;;;9.23;;
31734;SDS011;18313;48.518;9.124;2024-01-30T05:35:24;15.40;;;9.02;;
31734;SDS011;18313;48.518;9.124;2024-01-30T05:37:52;15.35;;;9.57;;
31734;SDS011;18313;48.518;9.124;2024-01-30T05:40:20;14.40;;;9.50;;
31734;SDS011;18313;48.518;9.124;2024-01-30T05:42:48;16.80;;;9.88;;
31734;SDS011;18313;48.518;9.124;2024-01-30T05:45:16;15.38;;;9.23;;
31734;SDS011;18313;48.518;9.124;2024-01-30T05:47:45;15.18;;;8.82;;
31734;SDS011;18313;48.518;9.124;2024-01-30T05:50:13;17.30;;;9.10;;
31734;SDS011;18313;48.518;9.124;2024-01-30T05:52:42;15.48;;;9.45;;
31734;SDS011;18313;48.518;9.124;2024-01-30T05:55:11;15.85;;;8.93;;
31734;SDS011;18313;48.518;9.124;2024-01-30T05:57:38;13.63;;;8.48;;
31734;SDS011;18313;48.518;9.124;2024-01-30T06:00:07;16.35;;;9.18;;
31734;SDS011;18313;48.518;9.124;2024-01-30T06:02:35;13.75;;;8.60;;
31734;SDS011;18313;48.518;9.124;2024-01-30T06:05:03;13.32;;;8.57;;
31734;SDS011;18313;48.518;9.124;2024-01-30T06:07:31;14.60;;;9.00;;
31734;SDS011;18313;48.518;9.124;2024-01-30T06:10:03;17.60;;;8.40;;
31734;SDS011;18313;48.518;9.124;2024-01-30T06:12:31;16.00;;;9.07;;
31734;SDS011;18313;48.518;9.124;2024-01-30T06:14:59;16.05;;;8.18;;
31734;SDS011;18313;48.518;9.124;2024-01-30T06:17:26;15.77;;;8.65;;
31734;SDS011;18313;48.518;9.124;2024-01-30T06:19:54;12.45;;;8.05;;
31734;SDS011;18313;48.518;9.124;2024-01-30T06:22:22;12.43;;;8.80;;
31734;SDS011;18313;48.518;9.124;2024-01-30T06:24:50;15.27;;;8.27;;
31734;SDS011;18313;48.518;9.124;2024-01-30T06:27:18;15.85;;;8.48;;
31734;SDS011;18313;48.518;9.124;2024-01-30T06:29:45;12.85;;;7.85;;
31734;SDS011;18313;48.518;9.124;2024-01-30T06:32:13;13.20;;;8.13;;
31734;SDS011;18313;48.518;9.124;2024-01-30T06:34:45;13.48;;;7.88;;
31734;SDS011;18313;48.518;9.124;2024-01-30T06:37:18;11.80;;;7.47;;
31734;SDS011;18313;48.518;9.124;2024-01-30T06:39:53;15.23;;;8.18;;
31734;SDS011;18313;48.518;9.124;2024-01-30T06:42:20;14.52;;;7.93;;
31734;SDS011;18313;48.518;9.124;2024-01-30T06:44:47;13.07;;;8.00;;
31734;SDS011;18313;48.518;9.124;2024-01-30T06:47:15;14.98;;;8.18;;
31734;SDS011;18313;48.518;9.124;2024-01-30T06:49:43;13.15;;;8.38;;
31734;SDS011;18313;48.518;9.124;2024-01-30T06:52:11;12.10;;;7.57;;
31734;SDS011;18313;48.518;9.124;2024-01-30T06:54:39;13.30;;;8.30;;
31734;SDS011;18313;48.518;9.124;2024-01-30T06:57:07;16.33;;;8.85;;
31734;SDS011;18313;48.518;9.124;2024-01-30T06:59:38;13.48;;;7.93;;
31734;SDS011;18313;48.518;9.124;2024-01-30T07:02:10;15.82;;;8.02;;
31734;SDS011;18313;48.518;9.124;2024-01-30T07:04:38;13.90;;;7.47;;
31734;SDS011;18313;48.518;9.124;2024-01-30T07:07:12;16.48;;;8.27;;
31734;SDS011;18313;48.518;9.124;2024-01-30T07:09:42;13.52;;;8.05;;
31734;SDS011;18313;48.518;9.124;2024-01-30T07:12:10;12.32;;;7.55;;
31734;SDS011;18313;48.518;9.124;2024-01-30T07:14:37;15.43;;;8.65;;
31734;SDS011;18313;48.518;9.124;2024-01-30T07:17:05;14.98;;;7.80;;
31734;SDS011;18313;48.518;9.124;2024-01-30T07:19:34;12.35;;;7.00;;
31734;SDS011;18313;48.518;9.124;2024-01-30T07:22:02;13.73;;;7.78;;
31734;SDS011;18313;48.518;9.124;2024-01-30T07:24:29;11.07;;;6.93;;
31734;SDS011;18313;48.518;9.124;2024-01-30T07:26:57;11.63;;;6.82;;
31734;SDS011;18313;48.518;9.124;2024-01-30T07:29:24;12.07;;;7.20;;
31734;SDS011;18313;48.518;9.124;2024-01-30T07:31:52;10.10;;;6.40;;
31734;SDS011;18313;48.518;9.124;2024-01-30T07:34:20;12.68;;;6.68;;
31734;SDS011;18313;48.518;9.124;2024-01-30T07:36:48;9.70;;;6.18;;
31734;SDS011;18313;48.518;9.124;2024-01-30T07:39:16;11.82;;;6.60;;
31734;SDS011;18313;48.518;9.124;2024-01-30T07:41:44;12.43;;;7.30;;
31734;SDS011;18313;48.518;9.124;2024-01-30T07:44:11;12.10;;;7.22;;
31734;SDS011;18313;48.518;9.124;2024-01-30T07:46:46;10.57;;;6.57;;
31734;SDS011;18313;48.518;9.124;2024-01-30T07:49:14;11.75;;;7.28;;
31734;SDS011;18313;48.518;9.124;2024-01-30T07:51:42;14.50;;;6.55;;
31734;SDS011;18313;48.518;9.124;2024-01-30T07:54:10;11.93;;;7.07;;
31734;SDS011;18313;48.518;9.124;2024-01-30T07:56:39;12.68;;;7.00;;
31734;SDS011;18313;48.518;9.124;2024-01-30T07:59:11;13.68;;;6.90;;
31734;SDS011;18313;48.518;9.124;2024-01-30T08:01:39;12.07;;;6.70;;
31734;SDS011;18313;48.518;9.124;2024-01-30T08:04:07;11.75;;;7.15;;
31734;SDS011;18313;48.518;9.124;2024-01-30T08:06:34;11.13;;;6.78;;
31734;SDS011;18313;48.518;9.124;2024-01-30T08:09:05;12.77;;;7.05;;
31734;SDS011;18313;48.518;9.124;2024-01-30T08:11:34;10.60;;;6.90;;
31734;SDS011;18313;48.518;9.124;2024-01-30T08:14:02;13.32;;;8.73;;
31734;SDS011;18313;48.518;9.124;2024-01-30T08:16:29;10.05;;;6.82;;
31734;SDS011;18313;48.518;9.124;2024-01-30T08:18:57;11.98;;;6.82;;
31734;SDS011;18313;48.518;9.124;2024-01-30T08:21:25;12.85;;;7.47;;
31734;SDS011;18313;48.518;9.124;2024-01-30T08:23:52;12.38;;;7.70;;
31734;SDS011;18313;48.518;9.124;2024-01-30T08:26:19;10.82;;;7.30;;
31734;SDS011;18313;48.518;9.124;2024-01-30T08:28:47;11.38;;;6.93;;
31734;SDS011;18313;48.518;9.124;2024-01-30T08:31:15;12.07;;;7.60;;
31734;SDS011;18313;48.518;9.124;2024-01-30T08:33:43;11.98;;;7.13;;
31734;SDS011;18313;48.518;9.124;2024-01-30T08:36:12;11.48;;;7.40;;
31734;SDS011;18313;48.518;9.124;2024-01-30T08:38:40;12.77;;;7.22;;
31734;SDS011;18313;48.518;9.124;2024-01-30T08:41:07;13.38;;;7.80;;
31734;SDS011;18313;48.518;9.124;2024-01-30T08:43:35;12.02;;;8.00;;
31734;SDS011;18313;48.518;9.124;2024-01-30T08:46:03;18.40;;;9.40;;
31734;SDS011;18313;48.518;9.124;2024-01-30T08:48:31;14.55;;;9.85;;
31734;SDS011;18313;48.518;9.124;2024-01-30T08:50:59;13.02;;;7.25;;
31734;SDS011;18313;48.518;9.124;2024-01-30T08:53:27;10.40;;;6.68;;
31734;SDS011;18313;48.518;9.124;2024-01-30T08:55:55;12.52;;;7.28;;
31734;SDS011;18313;48.518;9.124;2024-01-30T08:58:26;11.88;;;7.03;;
31734;SDS011;18313;48.518;9.124;2024-01-30T09:00:53;12.98;;;7.25;;
31734;SDS011;18313;48.518;9.124;2024-01-30T09:03:21;13.15;;;7.13;;
31734;SDS011;18313;48.518;9.124;2024-01-30T09:05:49;12.15;;;7.00;;
31734;SDS011;18313;48.518;9.124;2024-01-30T09:08:16;11.45;;;7.18;;
31734;SDS011;18313;48.518;9.124;2024-01-30T09:10:44;12.05;;;7.25;;
31734;SDS011;18313;48.518;9.124;2024-01-30T09:13:12;16.40;;;10.02;;
31734;SDS011;18313;48.518;9.124;2024-01-30T09:15:40;15.02;;;8.20;;
31734;SDS011;18313;48.518;9.124;2024-01-30T09:18:09;13.68;;;8.30;;
31734;SDS011;18313;48.518;9.124;2024-01-30T09:20:36;15.65;;;8.15;;
31734;SDS011;18313;48.518;9.124;2024-01-30T09:23:04;12.98;;;7.65;;
31734;SDS011;18313;48.518;9.124;2024-01-30T09:25:34;11.55;;;7.38;;
31734;SDS011;18313;48.518;9.124;2024-01-30T09:28:03;14.05;;;8.32;;
31734;SDS011;18313;48.518;9.124;2024-01-30T09:30:31;14.00;;;7.75;;
31734;SDS011;18313;48.518;9.124;2024-01-30T09:33:00;12.15;;;7.05;;
31734;SDS011;18313;48.518;9.124;2024-01-30T09:35:28;13.52;;;6.72;;
31734;SDS011;18313;48.518;9.124;2024-01-30T09:37:56;11.50;;;6.63;;
31734;SDS011;18313;48.518;9.124;2024-01-30T09:40:24;11.73;;;6.32;;
31734;SDS011;18313;48.518;9.124;2024-01-30T09:42:52;11.38;;;6.50;;
31734;SDS011;18313;48.518;9.124;2024-01-30T09:45:25;10.95;;;6.80;;
31734;SDS011;18313;48.518;9.124;2024-01-30T09:47:53;11.27;;;7.35;;
31734;SDS011;18313;48.518;9.124;2024-01-30T09:50:22;12.45;;;7.38;;
31734;SDS011;18313;48.518;9.124;2024-01-30T09:52:49;11.77;;;7.32;;
31734;SDS011;18313;48.518;9.124;2024-01-30T09:55:18;9.73;;;6.85;;
31734;SDS011;18313;48.518;9.124;2024-01-30T09:57:46;10.25;;;6.90;;
31734;SDS011;18313;48.518;9.124;2024-01-30T10:00:14;14.02;;;7.20;;
31734;SDS011;18313;48.518;9.124;2024-01-30T10:02:42;12.55;;;6.90;;
31734;SDS011;18313;48.518;9.124;2024-01-30T10:05:11;12.73;;;8.38;;
31734;SDS011;18313;48.518;9.124;2024-01-30T10:07:49;12.05;;;7.53;;
31734;SDS011;18313;48.518;9.124;2024-01-30T10:10:21;14.88;;;7.10;;
31734;SDS011;18313;48.518;9.124;2024-01-30T10:12:49;13.48;;;7.65;;
31734;SDS011;18313;48.518;9.124;2024-01-30T10:15:17;13.80;;;8.07;;
31734;SDS011;18313;48.518;9.124;2024-01-30T10:17:45;15.10;;;8.88;;
31734;SDS011;18313;48.518;9.124;2024-01-30T10:20:13;14.90;;;7.72;;
31734;SDS011;18313;48.518;9.124;2024-01-30T10:22:41;11.63;;;7.30;;
31734;SDS011;18313;48.518;9.124;2024-01-30T10:25:12;11.25;;;7.25;;
31734;SDS011;18313;48.518;9.124;2024-01-30T10:27:40;13.25;;;6.80;;
31734;SDS011;18313;48.518;9.124;2024-01-30T10:30:08;13.10;;;7.53;;
31734;SDS011;18313;48.518;9.124;2024-01-30T10:32:36;11.82;;;7.32;;
31734;SDS011;18313;48.518;9.124;2024-01-30T10:35:03;12.25;;;7.10;;
31734;SDS011;18313;48.518;9.124;2024-01-30T10:37:31;13.68;;;6.90;;
31734;SDS011;18313;48.518;9.124;2024-01-30T10:40:03;10.65;;;6.68;;
31734;SDS011;18313;48.518;9.124;2024-01-30T10:42:33;10.00;;;6.10;;
31734;SDS011;18313;48.518;9.124;2024-01-30T10:45:08;9.98;;;6.07;;
31734;SDS011;18313;48.518;9.124;2024-01-30T10:47:40;9.82;;;6.00;;
31734;SDS011;18313;48.518;9.124;2024-01-30T10:50:11;11.68;;;6.57;;
31734;SDS011;18313;48.518;9.124;2024-01-30T10:52:39;11.40;;;6.53;;
31734;SDS011;18313;48.518;9.124;2024-01-30T10:55:11;11.90;;;5.65;;
31734;SDS011;18313;48.518;9.124;2024-01-30T10:57:39;11.13;;;6.28;;
31734;SDS011;18313;48.518;9.124;2024-01-30T11:00:08;10.48;;;6.03;;
31734;SDS011;18313;48.518;9.124;2024-01-30T11:02:39;14.05;;;8.07;;
31734;SDS011;18313;48.518;9.124;2024-01-30T11:05:09;10.25;;;6.05;;
31734;SDS011;18313;48.518;9.124;2024-01-30T11:07:38;10.68;;;6.40;;
31734;SDS011;18313;48.518;9.124;2024-01-30T11:10:09;10.00;;;6.03;;
31734;SDS011;18313;48.518;9.124;2024-01-30T11:12:42;9.63;;;5.70;;
31734;SDS011;18313;48.518;9.124;2024-01-30T11:15:14;9.02;;;5.57;;
31734;SDS011;18313;48.518;9.124;2024-01-30T11:17:51;11.48;;;6.40;;
31734;SDS011;18313;48.518;9.124;2024-01-30T11:20:20;9.32;;;5.78;;
31734;SDS011;18313;48.518;9.124;2024-01-30T11:22:58;8.95;;;5.38;;
31734;SDS011;18313;48.518;9.124;2024-01-30T11:25:29;10.43;;;5.50;;
31734;SDS011;18313;48.518;9.124;2024-01-30T11:27:58;9.73;;;5.40;;
31734;SDS011;18313;48.518;9.124;2024-01-30T11:33:08;8.63;;;5.10;;
31734;SDS011;18313;48.518;9.124;2024-01-30T11:35:43;8.40;;;4.20;;
31734;SDS011;18313;48.518;9.124;2024-01-30T11:38:13;7.88;;;4.40;;
31734;SDS011;18313;48.518;9.124;2024-01-30T11:40:41;7.75;;;4.38;;
31734;SDS011;18313;48.518;9.124;2024-01-30T11:43:11;6.50;;;4.13;;
31734;SDS011;18313;48.518;9.124;2024-01-30T11:45:39;7.78;;;4.57;;
31734;SDS011;18313;48.518;9.124;2024-01-30T11:48:07;9.50;;;5.10;;
31734;SDS011;18313;48.518;9.124;2024-01-30T11:50:38;8.73;;;4.80;;
31734;SDS011;18313;48.518;9.124;2024-01-30T11:53:07;8.77;;;5.00;;
31734;SDS011;18313;48.518;9.124;2024-01-30T11:55:34;8.57;;;4.90;;
31734;SDS011;18313;48.518;9.124;2024-01-30T11:58:04;9.52;;;4.75;;
31734;SDS011;18313;48.518;9.124;2024-01-30T12:00:32;9.32;;;4.93;;
31734;SDS011;18313;48.518;9.124;2024-01-30T12:03:01;7.47;;;4.30;;
31734;SDS011;18313;48.518;9.124;2024-01-30T12:05:30;7.82;;;4.90;;
31734;SDS011;18313;48.518;9.124;2024-01-30T12:07:58;12.60;;;4.88;;
31734;SDS011;18313;48.518;9.124;2024-01-30T12:10:28;8.20;;;4.38;;
31734;SDS011;18313;48.518;9.124;2024-01-30T12:12:56;10.90;;;4.20;;
31734;SDS011;18313;48.518;9.124;2024-01-30T12:15:24;7.75;;;4.72;;
31734;SDS011;18313;48.518;9.124;2024-01-30T12:17:52;6.75;;;4.13;;
31734;SDS011;18313;48.518;9.124;2024-01-30T12:20:31;10.27;;;4.53;;
31734;SDS011;18313;48.518;9.124;2024-01-30T12:22:59;8.07;;;4.53;;
31734;SDS011;18313;48.518;9.124;2024-01-30T12:25:26;10.13;;;5.78;;
31734;SDS011;18313;48.518;9.124;2024-01-30T12:27:54;12.38;;;5.50;;
31734;SDS011;18313;48.518;9.124;2024-01-30T12:30:21;8.15;;;4.85;;
31734;SDS011;18313;48.518;9.124;2024-01-30T12:32:50;10.25;;;5.30;;
31734;SDS011;18313;48.518;9.124;2024-01-30T12:35:19;8.15;;;4.80;;
31734;SDS011;18313;48.518;9.124;2024-01-30T12:37:48;17.30;;;4.70;;
31734;SDS011;18313;48.518;9.124;2024-01-30T12:40:16;27.92;;;14.05;;
31734;SDS011;18313;48.518;9.124;2024-01-30T12:42:46;12.90;;;6.07;;
31734;SDS011;18313;48.518;9.124;2024-01-30T12:45:17;17.75;;;9.85;;
31734;SDS011;18313;48.518;9.124;2024-01-30T12:47:49;18.88;;;9.32;;
31734;SDS011;18313;48.518;9.124;2024-01-30T12:50:17;15.73;;;8.02;;
31734;SDS011;18313;48.518;9.124;2024-01-30T12:52:45;10.23;;;5.63;;
31734;SDS011;18313;48.518;9.124;2024-01-30T12:55:16;18.23;;;5.88;;
31734;SDS011;18313;48.518;9.124;2024-01-30T12:57:43;16.58;;;5.80;;
31734;SDS011;18313;48.518;9.124;2024-01-30T13:00:11;19.52;;;6.43;;
31734;SDS011;18313;48.518;9.124;2024-01-30T13:02:38;15.02;;;7.35;;
31734;SDS011;18313;48.518;9.124;2024-01-30T13:05:06;13.25;;;6.50;;
31734;SDS011;18313;48.518;9.124;2024-01-30T13:07:35;10.15;;;5.40;;
31734;SDS011;18313;48.518;9.124;2024-01-30T13:10:02;15.18;;;5.30;;
31734;SDS011;18313;48.518;9.124;2024-01-30T13:12:31;13.20;;;5.18;;
31734;SDS011;18313;48.518;9.124;2024-01-30T13:15:02;12.43;;;5.40;;
31734;SDS011;18313;48.518;9.124;2024-01-30T13:17:31;10.40;;;4.85;;
31734;SDS011;18313;48.518;9.124;2024-01-30T13:19:58;16.45;;;4.63;;
31734;SDS011;18313;48.518;9.124;2024-01-30T13:22:36;9.63;;;4.15;;
31734;SDS011;18313;48.518;9.124;2024-01-30T13:25:08;10.68;;;4.40;;
31734;SDS011;18313;48.518;9.124;2024-01-30T13:27:36;8.10;;;4.03;;
31734;SDS011;18313;48.518;9.124;2024-01-30T13:30:06;11.15;;;4.55;;
31734;SDS011;18313;48.518;9.124;2024-01-30T13:32:34;10.57;;;4.80;;
31734;SDS011;18313;48.518;9.124;2024-01-30T13:35:02;10.50;;;4.68;;
31734;SDS011;18313;48.518;9.124;2024-01-30T13:37:30;13.30;;;4.60;;
31734;SDS011;18313;48.518;9.124;2024-01-30T13:39:57;11.02;;;4.75;;
31734;SDS011;18313;48.518;9.124;2024-01-30T13:42:28;10.63;;;4.70;;
31734;SDS011;18313;48.518;9.124;2024-01-30T13:44:55;8.68;;;4.53;;
31734;SDS011;18313;48.518;9.124;2024-01-30T13:47:22;7.43;;;4.50;;
31734;SDS011;18313;48.518;9.124;2024-01-30T13:49:50;9.90;;;4.80;;
31734;SDS011;18313;48.518;9.124;2024-01-30T13:52:20;11.80;;;5.38;;
31734;SDS011;18313;48.518;9.124;2024-01-30T13:54:54;10.25;;;4.32;;
31734;SDS011;18313;48.518;9.124;2024-01-30T13:57:22;15.45;;;5.00;;
31734;SDS011;18313;48.518;9.124;2024-01-30T13:59:50;11.32;;;4.30;;
31734;SDS011;18313;48.518;9.124;2024-01-30T14:02:17;18.35;;;4.93;;
31734;SDS011;18313;48.518;9.124;2024-01-30T14:04:45;11.10;;;4.38;;
31734;SDS011;18313;48.518;9.124;2024-01-30T14:07:13;12.73;;;4.78;;
31734;SDS011;18313;48.518;9.124;2024-01-30T14:09:40;8.85;;;3.90;;
31734;SDS011;18313;48.518;9.124;2024-01-30T14:12:08;13.32;;;3.97;;
31734;SDS011;18313;48.518;9.124;2024-01-30T14:14:35;8.98;;;4.20;;
31734;SDS011;18313;48.518;9.124;2024-01-30T14:17:03;8.98;;;3.97;;
31734;SDS011;18313;48.518;9.124;2024-01-30T14:19:40;7.47;;;3.78;;
31734;SDS011;18313;48.518;9.124;2024-01-30T14:22:08;9.77;;;4.32;;
31734;SDS011;18313;48.518;9.124;2024-01-30T14:24:36;7.03;;;3.70;;
31734;SDS011;18313;48.518;9.124;2024-01-30T14:27:05;6.40;;;3.60;;
31734;SDS011;18313;48.518;9.124;2024-01-30T14:29:39;7.43;;;3.95;;
31734;SDS011;18313;48.518;9.124;2024-01-30T14:32:08;6.57;;;3.30;;
31734;SDS011;18313;48.518;9.124;2024-01-30T14:34:35;10.68;;;4.05;;
31734;SDS011;18313;48.518;9.124;2024-01-30T14:37:03;7.43;;;3.92;;
31734;SDS011;18313;48.518;9.124;2024-01-30T14:39:30;8.98;;;3.75;;
31734;SDS011;18313;48.518;9.124;2024-01-30T14:41:58;8.43;;;3.88;;
31734;SDS011;18313;48.518;9.124;2024-01-30T14:44:26;7.97;;;3.33;;
31734;SDS011;18313;48.518;9.124;2024-01-30T14:46:53;6.15;;;3.03;;
31734;SDS011;18313;48.518;9.124;2024-01-30T14:49:21;6.07;;;3.40;;
31734;SDS011;18313;48.518;9.124;2024-01-30T14:51:49;8.05;;;3.75;;
31734;SDS011;18313;48.518;9.124;2024-01-30T14:54:16;7.47;;;3.53;;
31734;SDS011;18313;48.518;9.124;2024-01-30T14:56:44;10.90;;;3.95;;
31734;SDS011;18313;48.518;9.124;2024-01-30T14:59:11;10.82;;;4.90;;
31734;SDS011;18313;48.518;9.124;2024-01-30T15:01:39;11.80;;;5.40;;
31734;SDS011;18313;48.518;9.124;2024-01-30T15:04:06;22.77;;;8.52;;
31734;SDS011;18313;48.518;9.124;2024-01-30T15:06:34;18.27;;;9.82;;
31734;SDS011;18313;48.518;9.124;2024-01-30T15:09:01;21.23;;;9.13;;
31734;SDS011;18313;48.518;9.124;2024-01-30T15:11:30;15.18;;;6.82;;
31734;SDS011;18313;48.518;9.124;2024-01-30T15:13:59;11.57;;;5.28;;
31734;SDS011;18313;48.518;9.124;2024-01-30T15:16:26;10.63;;;5.30;;
31734;SDS011;18313;48.518;9.124;2024-01-30T15:18:55;10.38;;;4.10;;
31734;SDS011;18313;48.518;9.124;2024-01-30T15:21:23;7.78;;;4.18;;
31734;SDS011;18313;48.518;9.124;2024-01-30T15:23:52;11.68;;;4.47;;